Time;durP1;ratioP1;P1;durP2;ratioP2;P2;SDS_P1;SDS_P2;PMS_P1;PMS_P2;Temp;Humidity;BMP_temperature;BMP_pressure;BME280_temperature;BME280_humidity;BME280_pressure;Samples;Min_cycle;Max_cycle;Signal;HPM_P1;HPM_P2
2022/01/07 00:00:53;;;;;;;23.80;11.63;;;22.60;29.50;;;;;;5091922;28;20069;-62
2022/01/07 00:03:19;;;;;;;30.27;10.98;;;22.50;29.40;;;;;;5091091;28;20087;-61
2022/01/07 00:05:45;;;;;;;27.77;9.30;;;22.40;29.80;;;;;;5090289;28;20110;-61
2022/01/07 00:08:12;;;;;;;33.30;9.60;;;22.30;30.50;;;;;;5090611;28;20077;-62
2022/01/07 00:10:38;;;;;;;23.10;10.35;;;22.20;31.60;;;;;;5091240;28;20549;-62
2022/01/07 00:13:05;;;;;;;51.55;10.13;;;22.10;31.50;;;;;;5090891;28;20073;-60
2022/01/07 00:15:32;;;;;;;36.45;10.15;;;22.00;31.80;;;;;;5091122;28;20534;-63
2022/01/07 00:17:58;;;;;;;23.92;10.02;;;21.90;32.10;;;;;;5091404;28;20105;-62
2022/01/07 00:20:25;;;;;;;24.25;10.35;;;21.80;33.00;;;;;;5092609;28;20069;-63
2022/01/07 00:22:52;;;;;;;29.35;9.98;;;21.60;33.20;;;;;;5075489;28;20073;-61
2022/01/07 00:25:19;;;;;;;36.83;10.27;;;21.50;34.10;;;;;;5091990;28;20069;-62
2022/01/07 00:27:46;;;;;;;48.33;10.50;;;21.40;34.10;;;;;;5113115;28;20078;-62
2022/01/07 00:30:14;;;;;;;38.28;8.88;;;21.20;34.90;;;;;;5096278;28;20842;-62
2022/01/07 00:32:40;;;;;;;38.63;8.82;;;21.10;35.60;;;;;;5090763;28;20088;-65
2022/01/07 00:35:09;;;;;;;31.08;8.40;;;20.90;35.80;;;;;;5092652;28;20072;-64
2022/01/07 00:37:36;;;;;;;34.25;7.07;;;20.80;36.50;;;;;;5091939;28;20142;-61
2022/01/07 00:40:04;;;;;;;27.17;7.55;;;20.70;36.90;;;;;;5090389;28;20133;-62
2022/01/07 00:42:31;;;;;;;25.15;7.70;;;20.60;37.50;;;;;;5090105;28;20123;-62
2022/01/07 00:44:57;;;;;;;25.17;7.70;;;20.40;37.90;;;;;;5088282;28;20450;-61
2022/01/07 00:47:24;;;;;;;22.67;7.22;;;20.20;38.30;;;;;;5073506;28;20176;-62
2022/01/07 00:49:51;;;;;;;36.00;8.02;;;20.10;38.20;;;;;;5090509;28;20072;-64
2022/01/07 00:52:17;;;;;;;37.03;8.45;;;20.00;38.70;;;;;;5089959;28;20145;-62
2022/01/07 00:54:44;;;;;;;26.20;9.00;;;19.90;38.50;;;;;;5090552;28;20138;-61
2022/01/07 00:57:10;;;;;;;32.63;8.85;;;19.80;38.80;;;;;;5089436;28;20116;-62
2022/01/07 00:59:37;;;;;;;35.80;8.65;;;19.60;39.30;;;;;;5090539;28;20095;-61
2022/01/07 01:02:03;;;;;;;24.38;7.68;;;19.50;39.90;;;;;;5073976;28;20089;-62
2022/01/07 01:04:30;;;;;;;34.83;8.35;;;19.30;40.30;;;;;;5089113;28;20099;-63
2022/01/07 01:06:56;;;;;;;26.92;8.32;;;19.20;40.30;;;;;;5073060;28;20172;-62
2022/01/07 01:09:22;;;;;;;;;;;19.00;40.80;;;;;;5090371;28;20073;-61
2022/01/07 01:11:49;;;;;;;25.20;7.63;;;19.00;41.20;;;;;;5072144;28;20302;-60
2022/01/07 01:14:15;;;;;;;;;;;18.90;41.20;;;;;;5090088;28;20117;-64
2022/01/07 01:16:41;;;;;;;30.02;8.52;;;18.70;41.60;;;;;;5089116;28;20078;-63
2022/01/07 01:19:08;;;;;;;37.35;8.63;;;18.60;41.00;;;;;;5090149;28;20119;-63
2022/01/07 01:21:35;;;;;;;33.42;10.70;;;18.50;41.20;;;;;;5090068;28;20104;-62
2022/01/07 01:24:02;;;;;;;47.28;13.52;;;18.20;41.00;;;;;;5073581;28;20079;-62
2022/01/07 01:26:28;;;;;;;44.97;10.70;;;18.20;41.80;;;;;;5072270;28;20446;-64
2022/01/07 01:28:55;;;;;;;53.10;10.38;;;18.20;42.70;;;;;;5091073;28;20100;-62
2022/01/07 01:31:21;;;;;;;41.05;10.75;;;18.10;43.40;;;;;;5073377;28;20490;-62
2022/01/07 01:33:48;;;;;;;43.83;10.30;;;18.00;43.70;;;;;;5088960;28;20119;-63
2022/01/07 01:36:15;;;;;;;39.80;9.98;;;17.90;43.80;;;;;;5090518;28;20480;-62
2022/01/07 01:38:42;;;;;;;43.33;10.02;;;17.90;44.00;;;;;;5089326;28;20474;-65
2022/01/07 01:41:09;;;;;;;44.80;10.45;;;17.70;44.40;;;;;;5089645;28;20117;-64
2022/01/07 01:43:35;;;;;;;46.35;11.27;;;17.60;44.50;;;;;;5089216;28;20075;-62
2022/01/07 01:46:02;;;;;;;53.25;11.05;;;17.60;45.40;;;;;;5072650;28;20079;-62
2022/01/07 01:48:28;;;;;;;45.47;10.30;;;17.40;45.90;;;;;;5088655;28;20084;-63
2022/01/07 01:50:55;;;;;;;;;;;17.40;46.30;;;;;;5089826;28;20091;-65
2022/01/07 01:53:22;;;;;;;51.60;9.27;;;17.30;46.10;;;;;;5090285;28;20047;-62
2022/01/07 01:55:48;;;;;;;47.33;10.20;;;17.20;46.20;;;;;;5088428;28;20305;-64
2022/01/07 01:58:14;;;;;;;;;;;17.00;46.40;;;;;;5097322;28;20078;-64
2022/01/07 02:00:40;;;;;;;45.10;9.43;;;17.00;46.70;;;;;;5088090;28;19972;-64
2022/01/07 02:03:06;;;;;;;;;;;16.90;47.00;;;;;;5073397;28;20500;-63
2022/01/07 02:05:33;;;;;;;42.15;10.18;;;16.90;47.10;;;;;;5088122;28;20355;-62
2022/01/07 02:08:00;;;;;;;56.58;9.57;;;16.80;47.40;;;;;;5090489;28;20175;-66
2022/01/07 02:10:27;;;;;;;49.25;10.15;;;16.70;47.60;;;;;;5071818;28;20085;-63
2022/01/07 02:12:53;;;;;;;56.00;10.63;;;16.60;47.70;;;;;;5089620;28;20159;-62
2022/01/07 02:15:20;;;;;;;54.50;10.35;;;16.60;48.40;;;;;;5087136;28;20093;-63
2022/01/07 02:17:49;;;;;;;49.17;11.07;;;16.50;48.10;;;;;;5088835;28;20116;-64
2022/01/07 02:20:19;;;;;;;37.33;9.10;;;16.50;48.30;;;;;;5090653;28;20075;-61
2022/01/07 02:22:45;;;;;;;46.15;10.40;;;16.40;48.30;;;;;;5090435;28;20088;-64
2022/01/07 02:25:12;;;;;;;;;;;16.40;48.80;;;;;;5089530;28;20076;-63
2022/01/07 02:27:41;;;;;;;54.97;9.80;;;16.30;49.00;;;;;;5070499;28;19960;-62
2022/01/07 02:30:11;;;;;;;55.58;10.98;;;16.20;49.20;;;;;;5087766;28;20163;-65
2022/01/07 02:32:37;;;;;;;61.45;11.68;;;16.10;49.60;;;;;;5088226;28;20439;-62
2022/01/07 02:35:05;;;;;;;55.42;12.85;;;16.10;50.00;;;;;;5085853;28;20171;-64
2022/01/07 02:37:32;;;;;;;72.18;13.68;;;16.00;50.00;;;;;;5086875;28;20093;-66
2022/01/07 02:39:58;;;;;;;72.43;13.52;;;16.00;50.00;;;;;;5087713;28;20120;-62
2022/01/07 02:42:25;;;;;;;;;;;15.90;50.00;;;;;;5095629;28;20076;-63
2022/01/07 02:44:52;;;;;;;77.30;15.50;;;15.80;50.30;;;;;;5087923;28;20068;-65
2022/01/07 02:47:19;;;;;;;75.63;14.68;;;15.80;50.50;;;;;;5088196;28;20073;-63
2022/01/07 02:49:46;;;;;;;94.43;16.67;;;15.70;50.60;;;;;;5088258;28;20462;-64
2022/01/07 02:52:12;;;;;;;66.07;15.05;;;15.70;50.80;;;;;;5087783;28;20081;-64
2022/01/07 02:54:38;;;;;;;;;;;15.60;51.20;;;;;;5091436;28;20133;-63
2022/01/07 02:57:05;;;;;;;97.30;17.08;;;15.60;51.40;;;;;;5087613;28;19956;-66
2022/01/07 02:59:32;;;;;;;69.20;16.67;;;15.60;51.70;;;;;;5087366;28;20075;-64
2022/01/07 03:01:58;;;;;;;71.15;16.73;;;15.60;51.80;;;;;;5089495;28;20209;-65
2022/01/07 03:04:26;;;;;;;;;;;15.50;51.90;;;;;;5070142;28;20072;-61
2022/01/07 03:06:53;;;;;;;70.07;17.45;;;15.40;52.10;;;;;;5085860;28;19964;-60
2022/01/07 03:09:19;;;;;;;79.70;19.20;;;15.30;52.30;;;;;;5085844;28;20076;-62
2022/01/07 03:11:46;;;;;;;105.97;20.95;;;15.10;52.30;;;;;;5086697;28;20088;-61
2022/01/07 03:14:12;;;;;;;;;;;15.10;52.80;;;;;;5087593;28;20083;-60
2022/01/07 03:16:41;;;;;;;97.93;21.17;;;15.10;53.20;;;;;;5087207;28;20350;-61
2022/01/07 03:19:08;;;;;;;88.72;20.48;;;15.10;53.50;;;;;;5070473;28;20065;-62
2022/01/07 03:21:34;;;;;;;89.28;19.50;;;15.10;54.00;;;;;;5094001;28;20559;-63
2022/01/07 03:24:00;;;;;;;;;;;15.10;54.40;;;;;;5089874;28;20546;-62
2022/01/07 03:26:26;;;;;;;65.93;18.13;;;15.00;54.10;;;;;;5088103;28;19960;-62
2022/01/07 03:28:52;;;;;;;;;;;15.00;54.00;;;;;;5089294;28;20084;-61
2022/01/07 03:31:19;;;;;;;90.32;19.13;;;14.80;53.70;;;;;;5094441;28;20063;-61
2022/01/07 03:33:45;;;;;;;86.65;18.08;;;14.80;53.80;;;;;;5091933;28;20435;-63
2022/01/07 03:36:11;;;;;;;;;;;14.70;53.50;;;;;;5089514;28;20096;-62
2022/01/07 03:38:37;;;;;;;70.03;18.85;;;14.70;54.00;;;;;;5088469;28;20067;-61
2022/01/07 03:41:04;;;;;;;;;;;14.70;54.20;;;;;;5087613;28;20483;-62
2022/01/07 03:43:30;;;;;;;69.80;17.65;;;14.60;54.30;;;;;;5088421;28;20081;-62
2022/01/07 03:45:57;;;;;;;84.85;17.85;;;14.60;54.70;;;;;;5088568;28;20554;-61
2022/01/07 03:48:23;;;;;;;;;;;14.60;54.60;;;;;;5085864;28;20076;-61
2022/01/07 03:50:49;;;;;;;61.00;17.30;;;14.60;54.60;;;;;;5089121;28;20077;-61
2022/01/07 03:53:15;;;;;;;;;;;14.50;54.70;;;;;;5089133;28;20130;-62
2022/01/07 03:55:41;;;;;;;85.20;17.73;;;14.40;54.80;;;;;;5089439;28;20056;-61
2022/01/07 03:58:07;;;;;;;;;;;14.40;55.20;;;;;;5093899;28;20084;-62
2022/01/07 04:00:38;;;;;;;72.95;16.35;;;14.40;55.80;;;;;;5087719;28;19976;-60
2022/01/07 04:03:07;;;;;;;70.65;17.20;;;14.40;55.70;;;;;;5085990;28;20509;-62
2022/01/07 04:05:34;;;;;;;62.33;15.27;;;14.40;55.60;;;;;;5087063;28;20069;-61
2022/01/07 04:08:01;;;;;;;57.28;15.48;;;14.20;55.60;;;;;;5070194;28;20164;-61
2022/01/07 04:10:27;;;;;;;74.60;14.90;;;14.20;55.80;;;;;;5089239;28;20115;-62
2022/01/07 04:12:54;;;;;;;47.70;15.02;;;14.20;55.80;;;;;;5088018;28;20084;-61
2022/01/07 04:15:23;;;;;;;;;;;14.10;56.00;;;;;;5087602;28;20119;-63
2022/01/07 04:17:51;;;;;;;68.70;15.80;;;14.10;56.10;;;;;;5070713;28;19977;-61
2022/01/07 04:20:21;;;;;;;93.80;18.10;;;14.10;56.40;;;;;;5069948;28;20084;-61
2022/01/07 04:22:48;;;;;;;81.32;18.02;;;14.10;56.50;;;;;;5047742;28;20415;-60
2022/01/07 04:25:19;;;;;;;89.35;19.08;;;14.00;56.60;;;;;;5072102;28;20129;-62
2022/01/07 04:27:48;;;;;;;83.72;19.83;;;14.00;56.90;;;;;;5077156;28;20117;-62
2022/01/07 04:30:15;;;;;;;94.80;25.05;;;13.90;57.00;;;;;;5093036;28;20078;-63
2022/01/07 04:32:42;;;;;;;85.82;25.35;;;13.80;57.10;;;;;;5075975;28;20080;-62
2022/01/07 04:35:11;;;;;;;119.70;31.48;;;13.90;57.30;;;;;;5112255;28;20125;-62
2022/01/07 04:37:38;;;;;;;124.20;35.38;;;13.80;57.30;;;;;;5093167;28;20096;-62
2022/01/07 04:40:07;;;;;;;149.90;41.30;;;13.80;57.40;;;;;;5108117;27;20530;-61
2022/01/07 04:42:33;;;;;;;140.48;43.58;;;13.80;57.50;;;;;;5112662;28;20446;-62
2022/01/07 04:44:59;;;;;;;182.48;44.03;;;13.80;57.50;;;;;;5094592;28;20111;-62
2022/01/07 04:47:26;;;;;;;;;;;13.70;57.60;;;;;;5095666;28;20524;-62
2022/01/07 04:49:52;;;;;;;196.20;48.83;;;13.70;57.80;;;;;;5092413;28;20009;-62
2022/01/07 04:52:21;;;;;;;;;;;13.60;57.90;;;;;;5111779;28;20463;-62
2022/01/07 04:54:47;;;;;;;212.30;49.75;;;13.60;57.90;;;;;;5092564;28;19957;-61
2022/01/07 04:57:13;;;;;;;;;;;13.60;58.00;;;;;;5094263;28;20087;-62
2022/01/07 04:59:39;;;;;;;196.88;49.33;;;13.60;58.10;;;;;;5109309;28;19972;-62
2022/01/07 05:02:06;;;;;;;210.32;48.30;;;13.60;58.20;;;;;;5092997;28;20191;-62
2022/01/07 05:04:33;;;;;;;216.05;49.22;;;13.60;58.10;;;;;;5092275;28;20174;-62
2022/01/07 05:06:59;;;;;;;;;;;13.60;58.30;;;;;;5092787;28;20092;-62
2022/01/07 05:09:25;;;;;;;177.50;46.92;;;13.60;58.30;;;;;;5093710;28;20056;-62
2022/01/07 05:11:52;;;;;;;;;;;13.50;57.90;;;;;;5111641;28;20087;-62
2022/01/07 05:14:20;;;;;;;164.63;45.55;;;13.60;58.20;;;;;;5112419;28;20313;-61
2022/01/07 05:16:46;;;;;;;188.60;46.05;;;13.50;58.10;;;;;;5092288;28;20655;-62
2022/01/07 05:19:13;;;;;;;155.98;43.97;;;13.50;57.90;;;;;;5110408;28;20068;-64
2022/01/07 05:21:39;;;;;;;;;;;13.50;58.00;;;;;;5110711;28;20076;-62
2022/01/07 05:24:06;;;;;;;161.33;45.67;;;13.40;58.00;;;;;;5089695;28;20636;-63
2022/01/07 05:26:33;;;;;;;181.65;47.65;;;13.40;57.90;;;;;;5091449;28;20128;-63
2022/01/07 05:28:59;;;;;;;;;;;13.30;57.90;;;;;;5092831;28;20079;-63
2022/01/07 05:31:25;;;;;;;179.23;49.58;;;13.30;58.10;;;;;;5091778;28;19956;-62
2022/01/07 05:33:53;;;;;;;177.75;47.50;;;13.20;58.40;;;;;;5110711;28;20072;-61
2022/01/07 05:36:21;;;;;;;182.85;48.08;;;13.20;58.40;;;;;;5092535;28;20084;-63
2022/01/07 05:38:47;;;;;;;169.45;46.97;;;13.20;58.70;;;;;;5092934;28;20440;-63
2022/01/07 05:41:15;;;;;;;166.30;46.50;;;13.20;59.00;;;;;;5091651;28;20115;-63
2022/01/07 05:43:41;;;;;;;174.85;48.08;;;13.20;59.10;;;;;;5091699;28;20522;-63
2022/01/07 05:46:10;;;;;;;180.60;48.80;;;13.10;59.20;;;;;;5092145;28;20477;-61
2022/01/07 05:48:37;;;;;;;190.20;51.67;;;13.10;59.40;;;;;;5093063;28;20076;-63
2022/01/07 05:51:04;;;;;;;188.02;56.53;;;13.00;59.70;;;;;;5093146;28;20166;-61
2022/01/07 05:53:30;;;;;;;189.07;54.35;;;13.00;60.00;;;;;;5092803;28;20085;-61
2022/01/07 05:55:56;;;;;;;;;;;13.00;60.00;;;;;;5112072;28;20078;-63
2022/01/07 05:58:23;;;;;;;193.93;49.72;;;12.90;60.00;;;;;;5092423;28;20043;-64
2022/01/07 06:00:49;;;;;;;;;;;12.90;60.20;;;;;;5076816;28;20076;-64
2022/01/07 06:03:15;;;;;;;155.40;46.75;;;12.90;60.60;;;;;;5091747;28;19972;-62
2022/01/07 06:05:42;;;;;;;166.52;45.67;;;13.00;61.20;;;;;;5092417;28;20072;-61
2022/01/07 06:08:09;;;;;;;153.30;43.10;;;12.90;61.20;;;;;;5091706;28;20072;-63
2022/01/07 06:10:36;;;;;;;160.93;45.33;;;12.90;61.10;;;;;;5093186;28;20507;-63
2022/01/07 06:13:02;;;;;;;161.23;43.28;;;12.80;61.10;;;;;;5110300;28;20095;-61
2022/01/07 06:15:28;;;;;;;;;;;12.70;61.50;;;;;;5092497;28;20068;-61
2022/01/07 06:17:55;;;;;;;154.30;47.42;;;12.60;62.00;;;;;;5092301;28;19983;-64
2022/01/07 06:20:21;;;;;;;;;;;12.60;62.30;;;;;;5093084;28;20436;-62
2022/01/07 06:22:48;;;;;;;179.80;45.65;;;12.50;62.50;;;;;;5093561;28;20009;-63
2022/01/07 06:25:15;;;;;;;157.73;44.38;;;12.50;62.70;;;;;;5110536;28;20111;-61
2022/01/07 06:27:41;;;;;;;137.27;43.35;;;12.40;63.30;;;;;;5092237;28;20076;-61
2022/01/07 06:30:08;;;;;;;;;;;12.40;63.70;;;;;;5092125;28;20166;-61
2022/01/07 06:32:34;;;;;;;146.20;45.00;;;12.40;63.90;;;;;;5092454;28;19960;-64
2022/01/07 06:35:01;;;;;;;167.32;46.35;;;12.30;63.90;;;;;;5091032;27;20545;-65
2022/01/07 06:37:28;;;;;;;168.50;45.80;;;12.40;65.00;;;;;;5090692;28;20088;-63
2022/01/07 06:39:55;;;;;;;136.93;44.05;;;12.40;64.40;;;;;;5092502;28;20068;-63
2022/01/07 06:42:22;;;;;;;167.68;45.65;;;12.50;64.10;;;;;;5089440;28;20072;-64
2022/01/07 06:44:48;;;;;;;171.00;45.45;;;12.50;63.80;;;;;;5110589;28;20071;-63
2022/01/07 06:47:14;;;;;;;;;;;12.50;63.90;;;;;;5091126;28;20086;-62
2022/01/07 06:49:41;;;;;;;156.00;45.58;;;12.60;64.20;;;;;;5091058;28;19960;-64
2022/01/07 06:52:07;;;;;;;;;;;12.50;64.40;;;;;;5091348;28;20088;-62
2022/01/07 06:54:33;;;;;;;172.30;44.58;;;12.60;64.30;;;;;;5090263;28;20020;-62
2022/01/07 06:57:00;;;;;;;;;;;12.60;64.30;;;;;;5089583;28;20461;-63
2022/01/07 06:59:26;;;;;;;136.30;41.75;;;12.50;64.20;;;;;;5092811;28;20205;-63
2022/01/07 07:01:53;;;;;;;157.52;43.25;;;12.50;64.30;;;;;;5089986;28;20461;-63
2022/01/07 07:04:19;;;;;;;144.98;42.58;;;12.50;64.10;;;;;;5108465;28;20106;-62
2022/01/07 07:06:46;;;;;;;136.98;41.40;;;12.50;64.70;;;;;;5089446;28;20068;-63
2022/01/07 07:09:12;;;;;;;;;;;12.50;64.10;;;;;;5106356;28;20117;-65
2022/01/07 07:11:39;;;;;;;171.75;46.08;;;12.50;64.00;;;;;;5090680;28;19999;-63
2022/01/07 07:14:06;;;;;;;159.30;46.50;;;12.40;63.90;;;;;;5090392;28;20079;-62
2022/01/07 07:16:32;;;;;;;154.50;46.83;;;12.50;64.50;;;;;;5089056;28;20160;-62
2022/01/07 07:18:59;;;;;;;131.95;44.03;;;12.40;65.10;;;;;;5089872;28;20491;-62
2022/01/07 07:21:25;;;;;;;;;;;12.40;66.10;;;;;;5088762;28;20076;-62
2022/01/07 07:23:51;;;;;;;171.25;46.90;;;12.30;66.00;;;;;;5090593;28;19962;-63
2022/01/07 07:26:17;;;;;;;162.60;45.90;;;12.30;66.40;;;;;;5089644;28;20076;-61
2022/01/07 07:28:43;;;;;;;;;;;11.90;76.20;;;;;;5088906;28;20446;-62
2022/01/07 07:31:13;;;;;;;146.52;46.38;;;11.80;77.50;;;;;;5086980;28;20405;-64
2022/01/07 07:36:32;;;;;;;140.85;43.67;;;11.90;85.60;;;;;;5107662;28;20024;-63
2022/01/07 07:39:04;;;;;;;132.80;42.47;;;;;;;;;;5089264;28;20518;-63
2022/01/07 07:41:32;;;;;;;142.90;43.13;;;11.80;67.60;;;;;;5087930;28;20073;-63
2022/01/07 07:43:59;;;;;;;155.25;45.05;;;12.10;85.50;;;;;;5087354;28;20074;-63
2022/01/07 07:46:28;;;;;;;138.07;44.13;;;11.80;68.60;;;;;;5086518;28;20102;-62
2022/01/07 07:48:55;;;;;;;146.80;41.70;;;;;;;;;;5088760;28;20145;-62
2022/01/07 07:51:21;;;;;;;154.93;44.38;;;12.00;78.70;;;;;;5104920;28;20441;-63
2022/01/07 07:53:48;;;;;;;155.35;43.95;;;11.60;93.50;;;;;;5088634;28;20084;-63
2022/01/07 07:56:17;;;;;;;126.38;42.30;;;11.60;74.80;;;;;;5088512;28;20069;-63
2022/01/07 07:58:44;;;;;;;133.95;40.83;;;11.70;67.30;;;;;;5107147;28;20530;-62
2022/01/07 08:01:12;;;;;;;126.07;42.55;;;11.50;87.50;;;;;;5090980;28;20078;-64
2022/01/07 08:03:38;;;;;;;140.43;41.63;;;;;;;;;;5110229;28;20393;-62
2022/01/07 08:06:05;;;;;;;141.93;45.00;;;;;;;;;;5091461;28;20020;-64
2022/01/07 08:08:34;;;;;;;;;;;11.60;67.60;;;;;;5090893;28;20075;-62
2022/01/07 08:11:03;;;;;;;154.82;49.60;;;11.60;69.60;;;;;;5091860;28;20007;-62
2022/01/07 08:16:15;;;;;;;169.63;50.00;;;11.70;71.70;;;;;;5111207;28;20167;-62
2022/01/07 08:18:41;;;;;;;171.70;49.55;;;11.50;75.90;;;;;;5091855;28;20067;-64
2022/01/07 08:21:09;;;;;;;;;;;11.50;69.80;;;;;;5090248;28;20068;-63
2022/01/07 08:23:36;;;;;;;;;;;11.20;98.50;;;;;;5093633;28;19907;-62
2022/01/07 08:26:09;;;;;;;169.55;51.50;;;11.40;68.30;;;;;;5091358;28;19968;-62
2022/01/07 08:28:44;;;;;;;176.18;54.90;;;11.10;75.80;;;;;;5109050;28;20485;-61
2022/01/07 08:36:26;;;;;;;174.23;56.22;;;11.20;71.30;;;;;;5110203;28;20097;-64
2022/01/07 08:38:54;;;;;;;167.15;56.38;;;11.30;69.70;;;;;;5089136;28;20550;-62
2022/01/07 08:41:23;;;;;;;210.98;58.35;;;11.30;70.70;;;;;;5109571;28;20068;-62
2022/01/07 08:43:50;;;;;;;180.75;58.60;;;11.40;70.60;;;;;;5091550;28;20068;-63
2022/01/07 08:46:16;;;;;;;179.80;55.00;;;11.40;92.40;;;;;;5090399;28;20593;-63
2022/01/07 08:48:43;;;;;;;;;;;11.40;70.40;;;;;;5088699;28;20114;-63
2022/01/07 08:51:10;;;;;;;176.32;58.72;;;11.30;70.70;;;;;;5110321;28;19962;-63
2022/01/07 08:53:36;;;;;;;191.88;59.95;;;11.30;70.60;;;;;;5091310;28;20414;-65
2022/01/07 08:56:04;;;;;;;194.38;62.28;;;11.30;70.30;;;;;;5089772;28;20076;-61
2022/01/07 08:58:31;;;;;;;202.32;57.83;;;10.90;76.00;;;;;;5087789;28;20065;-64
2022/01/07 09:00:57;;;;;;;;;;;11.30;69.70;;;;;;5090180;28;20128;-62
2022/01/07 09:03:24;;;;;;;213.50;68.03;;;11.30;70.40;;;;;;5090996;28;19978;-65
2022/01/07 09:05:51;;;;;;;215.32;67.78;;;11.10;76.60;;;;;;5092533;28;20911;-65
2022/01/07 09:08:18;;;;;;;225.05;70.53;;;10.80;90.40;;;;;;5091361;28;20530;-63
2022/01/07 09:10:45;;;;;;;209.35;71.28;;;11.00;70.70;;;;;;5109364;28;20076;-62
2022/01/07 09:13:11;;;;;;;212.82;68.95;;;10.80;86.40;;;;;;5090974;28;20140;-62
2022/01/07 09:15:39;;;;;;;229.55;69.15;;;;;;;;;;5108359;28;20091;-64
2022/01/07 09:20:49;;;;;;;211.63;68.22;;;11.50;83.50;;;;;;5152674;27;20149;-63
2022/01/07 09:23:16;;;;;;;224.48;69.22;;;11.20;72.80;;;;;;5127600;27;20141;-62
2022/01/07 09:25:43;;;;;;;214.77;67.57;;;11.20;72.90;;;;;;5117845;27;20516;-63
2022/01/07 09:28:10;;;;;;;211.77;65.80;;;11.20;72.60;;;;;;5113009;27;20175;-63
2022/01/07 09:30:37;;;;;;;191.38;64.25;;;11.20;72.00;;;;;;5109620;27;20575;-63
2022/01/07 09:33:04;;;;;;;207.65;64.55;;;11.20;71.90;;;;;;5113220;27;20117;-64
2022/01/07 09:35:31;;;;;;;184.13;63.72;;;11.10;72.10;;;;;;5113520;27;20121;-62
2022/01/07 09:37:57;;;;;;;179.65;62.60;;;11.10;72.10;;;;;;5116267;27;20471;-63
2022/01/07 09:40:24;;;;;;;188.90;64.88;;;11.10;72.20;;;;;;5111814;27;20525;-63
2022/01/07 09:42:57;;;;;;;;;;;11.10;72.70;;;;;;5112403;27;20084;-65
2022/01/07 09:45:25;;;;;;;179.95;61.83;;;11.00;72.70;;;;;;5118275;27;19966;-63
2022/01/07 09:47:55;;;;;;;173.75;60.42;;;11.00;72.90;;;;;;5109127;27;20104;-64
2022/01/07 09:50:23;;;;;;;163.68;56.60;;;11.00;72.80;;;;;;5118779;27;20096;-64
2022/01/07 09:52:50;;;;;;;150.60;52.53;;;11.00;72.60;;;;;;5117586;27;20437;-62
2022/01/07 09:55:16;;;;;;;;;;;11.00;72.60;;;;;;5115185;27;20082;-65
2022/01/07 09:57:42;;;;;;;134.07;46.72;;;11.00;73.00;;;;;;5131150;27;19968;-65
2022/01/07 10:00:10;;;;;;;;;;;11.00;72.00;;;;;;5128338;27;20537;-62
2022/01/07 10:02:36;;;;;;;105.30;40.05;;;10.90;71.30;;;;;;5112999;27;20342;-64
2022/01/07 10:05:16;;;;;;;98.22;35.28;;;;;;;;;;5109926;27;20586;-61
2022/01/07 10:07:43;;;;;;;87.07;34.83;;;10.70;85.20;;;;;;5111349;27;20027;-64
2022/01/07 10:10:17;;;;;;;91.70;35.67;;;10.80;70.30;;;;;;5112044;28;20152;-62
2022/01/07 10:13:00;;;;;;;95.88;34.88;;;10.80;70.30;;;;;;5108604;27;20086;-62
2022/01/07 10:15:29;;;;;;;90.80;35.72;;;10.80;70.10;;;;;;5129824;27;20154;-66
2022/01/07 10:18:00;;;;;;;98.13;34.78;;;10.70;72.40;;;;;;5126022;27;20128;-65
2022/01/07 10:20:30;;;;;;;79.93;33.72;;;10.80;70.10;;;;;;5100353;27;20581;-63
2022/01/07 10:23:07;;;;;;;85.88;34.83;;;10.80;70.10;;;;;;5126863;27;20600;-62
2022/01/07 10:25:36;;;;;;;91.82;34.55;;;10.80;69.90;;;;;;5106850;27;20076;-63
2022/01/07 10:28:08;;;;;;;94.30;37.47;;;10.70;70.30;;;;;;5123877;27;20181;-62
2022/01/07 10:30:44;;;;;;;86.03;35.70;;;10.70;71.30;;;;;;5097565;28;20095;-64
2022/01/07 10:33:25;;;;;;;88.32;35.38;;;10.70;71.50;;;;;;5094483;27;20083;-63
2022/01/07 10:35:55;;;;;;;90.20;35.78;;;10.60;71.30;;;;;;5106194;28;20149;-63
2022/01/07 10:38:29;;;;;;;91.53;34.65;;;10.70;72.00;;;;;;5092462;27;20064;-62
2022/01/07 10:41:00;;;;;;;97.13;35.70;;;10.80;93.70;;;;;;5094973;27;20076;-65
2022/01/07 10:43:32;;;;;;;85.47;36.10;;;10.50;73.90;;;;;;5095197;27;20608;-63
2022/01/07 10:46:11;;;;;;;91.88;35.67;;;10.60;72.10;;;;;;5095333;27;20435;-63
2022/01/07 10:48:37;;;;;;;94.93;33.50;;;10.50;72.60;;;;;;5095917;27;20068;-65
2022/01/07 10:51:08;;;;;;;;;;;10.50;72.70;;;;;;5095120;28;20079;-63
2022/01/07 10:53:34;;;;;;;87.28;33.70;;;10.50;72.40;;;;;;5097066;28;20066;-63
2022/01/07 10:56:07;;;;;;;91.88;35.55;;;10.50;72.40;;;;;;5095221;28;20073;-63
2022/01/07 10:58:58;;;;;;;94.90;32.63;;;10.40;72.70;;;;;;5096277;27;20186;-64
2022/01/07 11:01:29;;;;;;;86.22;32.85;;;10.40;72.90;;;;;;5110491;27;20065;-65
2022/01/07 11:03:57;;;;;;;80.07;32.75;;;10.40;72.70;;;;;;5111357;27;20091;-63
2022/01/07 11:06:26;;;;;;;85.57;34.50;;;10.40;73.80;;;;;;5110081;27;20534;-64
2022/01/07 11:08:54;;;;;;;79.15;33.03;;;10.40;74.70;;;;;;5093183;27;20088;-63
2022/01/07 11:11:22;;;;;;;81.32;33.08;;;10.30;74.30;;;;;;5094331;27;20522;-62
2022/01/07 11:13:49;;;;;;;86.65;31.80;;;10.30;73.90;;;;;;5092057;28;20072;-63
2022/01/07 11:16:17;;;;;;;81.55;31.60;;;10.30;73.70;;;;;;5089893;27;20209;-63
2022/01/07 11:18:46;;;;;;;79.40;32.83;;;10.30;73.90;;;;;;5095046;27;20141;-61
2022/01/07 11:21:16;;;;;;;85.55;34.25;;;10.20;73.50;;;;;;5092910;27;20667;-64
2022/01/07 11:23:43;;;;;;;75.10;31.00;;;10.50;79.00;;;;;;5092190;27;20083;-62
2022/01/07 11:26:09;;;;;;;;;;;10.20;77.70;;;;;;5089644;28;20171;-62
2022/01/07 11:28:37;;;;;;;77.87;32.57;;;10.50;82.50;;;;;;5092561;28;20356;-62
2022/01/07 11:31:15;;;;;;;76.95;31.52;;;;;;;;;;5094675;27;20112;-62
2022/01/07 11:36:09;;;;;;;92.80;33.13;;;10.10;73.60;;;;;;5091118;27;20418;-62
2022/01/07 11:38:41;;;;;;;81.85;33.05;;;10.10;74.90;;;;;;5088706;28;20519;-63
2022/01/07 11:41:11;;;;;;;83.15;32.53;;;9.70;90.50;;;;;;5088144;28;20069;-62
2022/01/07 11:43:48;;;;;;;72.38;30.55;;;9.90;74.60;;;;;;5088869;28;20151;-64
2022/01/07 11:46:31;;;;;;;85.72;31.25;;;9.80;74.30;;;;;;5088267;28;20501;-64
2022/01/07 11:48:59;;;;;;;85.53;31.27;;;9.80;74.70;;;;;;5087602;28;20069;-64
2022/01/07 11:51:40;;;;;;;80.75;31.52;;;9.90;75.50;;;;;;5086402;28;20150;-62
2022/01/07 11:54:09;;;;;;;82.03;30.55;;;9.90;75.60;;;;;;5087287;28;20537;-62
2022/01/07 11:56:37;;;;;;;79.15;31.50;;;9.80;75.10;;;;;;5087461;28;20076;-63
2022/01/07 11:59:20;;;;;;;75.85;29.73;;;9.80;75.30;;;;;;5086388;28;20084;-62
2022/01/07 12:01:57;;;;;;;70.65;31.00;;;9.70;76.10;;;;;;5087415;28;20075;-64
2022/01/07 12:04:29;;;;;;;63.80;28.92;;;9.80;76.60;;;;;;5087648;28;20175;-63
2022/01/07 12:07:03;;;;;;;66.50;28.42;;;9.70;76.60;;;;;;5087933;28;20133;-63
2022/01/07 12:09:31;;;;;;;65.30;27.45;;;9.70;76.20;;;;;;5087835;28;20096;-62
2022/01/07 12:12:06;;;;;;;60.22;26.10;;;9.60;76.30;;;;;;5084372;28;20166;-62
2022/01/07 12:14:37;;;;;;;66.32;25.98;;;9.50;76.30;;;;;;5088695;28;20127;-62
2022/01/07 12:17:06;;;;;;;61.65;26.90;;;9.40;76.20;;;;;;5100763;28;20076;-63
2022/01/07 12:19:38;;;;;;;57.22;24.17;;;9.40;76.70;;;;;;5083166;28;20367;-62
2022/01/07 12:22:16;;;;;;;63.85;26.30;;;9.50;76.70;;;;;;5086796;28;20160;-63
2022/01/07 12:24:43;;;;;;;45.58;23.95;;;9.40;76.30;;;;;;5105139;28;20134;-66
2022/01/07 12:27:20;;;;;;;66.45;27.02;;;9.40;76.70;;;;;;5089558;28;20073;-64
2022/01/07 12:29:52;;;;;;;67.03;26.85;;;9.40;76.60;;;;;;5102814;28;20083;-63
2022/01/07 12:32:19;;;;;;;72.20;28.33;;;9.40;77.00;;;;;;5087397;28;20116;-63
2022/01/07 12:34:50;;;;;;;81.40;31.65;;;9.40;77.60;;;;;;5086305;28;20121;-65
2022/01/07 12:37:20;;;;;;;69.95;29.25;;;9.40;78.50;;;;;;5087364;28;20435;-62
2022/01/07 12:39:50;;;;;;;76.30;32.17;;;9.30;78.60;;;;;;5101775;28;20442;-62
2022/01/07 12:42:17;;;;;;;76.05;31.60;;;9.30;78.50;;;;;;5086002;28;20077;-64
2022/01/07 12:44:54;;;;;;;90.10;34.40;;;9.40;79.10;;;;;;5085595;28;20559;-64
2022/01/07 12:47:27;;;;;;;88.90;35.03;;;9.40;78.70;;;;;;5073461;28;20171;-64
2022/01/07 12:49:57;;;;;;;86.97;33.95;;;9.40;78.60;;;;;;5071911;28;20167;-64
2022/01/07 12:52:49;;;;;;;92.13;35.67;;;9.30;79.00;;;;;;5070321;28;20247;-62
2022/01/07 12:55:26;;;;;;;83.55;35.90;;;9.40;78.90;;;;;;5070829;28;20542;-63
2022/01/07 12:58:02;;;;;;;;;;;9.30;78.60;;;;;;5074165;28;20076;-63
2022/01/07 13:00:35;;;;;;;105.68;37.90;;;9.30;78.80;;;;;;5071847;28;19969;-63
2022/01/07 13:03:07;;;;;;;103.63;37.88;;;9.30;79.20;;;;;;5072036;28;20084;-63